Decoded Metar for DTTZ (TOZEUR in TUNISIA) (IATA:TOE) | Meteo·Mobile Aviation Weather
aviador You're here:

DTTZ Decoded Metar

TOZEUR in TUNISIA
Report Time2019-08-22 13:00:00
UTC Time2019-08-22 13:50:28
Flight Rules vfr VFR
Wind100° at 14 kt
W.Decomp.*RWY 09: 13.8 kt HW 2.2 kt RCW
Visibility9999 m
Phenomena:N/A
Clouds:N/A
Expected CloudBase > 7,200 ft AGL from Temp-Dew spread
CeilingNone
Temp36°C (ISA +22)
Dew Point18°C (34% RH)
Heat Index37.2°C
AAT33.6°C
QNH1014 hPa
Density Alt2,992 ft
Elevation305 ft
Report Wrong Elevation
Raw Report
METAR DTTZ 221300Z 10014KT CAVOK 36/18 Q1014 NOSIG=

Extra information for DTTZ:More info

Metar Taf Metar & Taf Last 4 Metars F.Rules Stats Wind Profile Meteogram Temp Stats Airport Information Weather charts Add Link Nearby VenuesMetar ALERT Operation Metar Decoded Social comments